Time;durP1;ratioP1;P1;durP2;ratioP2;P2;SDS_P1;SDS_P2;PMS_P1;PMS_P2;Temp;Humidity;BMP_temperature;BMP_pressure;BME280_temperature;BME280_humidity;BME280_pressure;Samples;Min_cycle;Max_cycle;Signal;HPM_P1;HPM_P2
2021/03/24 00:02:21;;;;;;;14.47;7.60;;;6.50;99.90;;;;;;5054381;28;20238;-68
2021/03/24 00:04:47;;;;;;;13.77;7.50;;;6.50;99.90;;;;;;5054617;28;20501;-68
2021/03/24 00:07:13;;;;;;;14.60;7.60;;;6.40;99.90;;;;;;5062972;28;20218;-68
2021/03/24 00:09:38;;;;;;;17.10;7.27;;;6.40;99.90;;;;;;5074924;28;20213;-67
2021/03/24 00:12:05;;;;;;;16.80;7.33;;;6.40;99.90;;;;;;5064861;28;20214;-68
2021/03/24 00:14:31;;;;;;;13.77;6.90;;;6.40;99.90;;;;;;5083668;28;20210;-69
2021/03/24 00:16:56;;;;;;;11.20;6.27;;;6.40;99.90;;;;;;5096066;28;20478;-67
2021/03/24 00:19:22;;;;;;;16.77;9.27;;;6.30;99.90;;;;;;5047231;28;20225;-68
2021/03/24 00:21:48;;;;;;;18.20;7.37;;;6.20;99.90;;;;;;5092775;28;20236;-68
2021/03/24 00:24:13;;;;;;;14.97;8.20;;;6.10;99.90;;;;;;5087011;28;20221;-68
2021/03/24 00:26:39;;;;;;;13.40;8.37;;;6.00;99.90;;;;;;5058691;28;20745;-68
2021/03/24 00:29:04;;;;;;;9.40;6.63;;;6.00;99.90;;;;;;5074387;28;20271;-68
2021/03/24 00:31:30;;;;;;;13.20;6.70;;;6.10;99.90;;;;;;5058321;28;20727;-69
2021/03/24 00:33:56;;;;;;;14.90;8.33;;;6.10;99.90;;;;;;5058744;28;20276;-68
2021/03/24 00:36:21;;;;;;;20.10;8.60;;;6.20;99.90;;;;;;5058314;28;20274;-68
2021/03/24 00:38:47;;;;;;;12.43;7.70;;;6.10;99.90;;;;;;5075509;28;20223;-70
2021/03/24 00:41:13;;;;;;;12.83;7.27;;;6.10;99.90;;;;;;5058419;28;20221;-70
2021/03/24 00:43:39;;;;;;;16.50;7.67;;;6.20;99.90;;;;;;5075471;28;20231;-70
2021/03/24 00:46:05;;;;;;;15.50;7.93;;;6.10;99.90;;;;;;5075276;28;20218;-69
2021/03/24 00:48:33;;;;;;;11.53;6.60;;;6.10;99.90;;;;;;5084233;28;20222;-70
2021/03/24 00:51:00;;;;;;;13.80;7.43;;;6.10;99.90;;;;;;5066640;28;20276;-70
2021/03/24 00:53:26;;;;;;;15.90;7.50;;;6.10;99.90;;;;;;5074206;28;20468;-70
2021/03/24 00:55:52;;;;;;;19.40;8.13;;;6.00;99.90;;;;;;5075456;28;20460;-70
2021/03/24 00:58:19;;;;;;;14.97;7.80;;;6.00;99.90;;;;;;5074778;28;21032;-70
2021/03/24 01:00:47;;;;;;;15.00;7.73;;;6.00;99.90;;;;;;5092296;28;20222;-69
2021/03/24 01:03:13;;;;;;;16.57;7.40;;;6.00;99.90;;;;;;5074485;28;20461;-70
2021/03/24 01:05:42;;;;;;;16.27;8.10;;;6.00;99.90;;;;;;5075012;28;20462;-70
2021/03/24 01:08:11;;;;;;;14.00;6.67;;;6.00;99.90;;;;;;5074402;28;20452;-70
2021/03/24 01:10:38;;;;;;;14.97;8.37;;;5.90;99.90;;;;;;5074536;28;20453;-70
2021/03/24 01:13:05;;;;;;;13.23;7.57;;;5.90;99.90;;;;;;5082020;27;20577;-71
2021/03/24 01:15:32;;;;;;;19.60;8.10;;;5.90;99.90;;;;;;5086934;28;20465;-70
2021/03/24 01:17:57;;;;;;;14.70;7.03;;;5.90;99.90;;;;;;5066332;28;20453;-69
2021/03/24 01:20:38;;;;;;;13.07;6.60;;;5.90;99.90;;;;;;5087122;28;20450;-70
2021/03/24 01:23:03;;;;;;;11.27;6.90;;;5.80;99.90;;;;;;5069853;28;20210;-71
2021/03/24 01:25:29;;;;;;;14.80;7.20;;;5.80;99.90;;;;;;5065063;28;20468;-70
2021/03/24 01:27:57;;;;;;;13.60;6.90;;;5.80;99.90;;;;;;5091689;28;20309;-69
2021/03/24 01:30:28;;;;;;;14.23;6.97;;;5.80;99.90;;;;;;5073644;28;20487;-70
2021/03/24 01:32:54;;;;;;;10.93;5.83;;;5.80;99.90;;;;;;5081496;28;20535;-70
2021/03/24 01:35:21;;;;;;;14.00;6.90;;;5.80;99.90;;;;;;5072187;28;20449;-70
2021/03/24 01:37:47;;;;;;;10.73;6.07;;;5.70;99.90;;;;;;5070404;28;20446;-70
2021/03/24 01:40:28;;;;;;;11.27;6.10;;;5.70;99.90;;;;;;5061582;28;20464;-70
2021/03/24 01:42:58;;;;;;;15.73;6.60;;;5.70;99.90;;;;;;5078168;28;20547;-69
2021/03/24 01:45:23;;;;;;;13.00;7.17;;;5.70;99.90;;;;;;5072279;28;20499;-69
2021/03/24 01:47:50;;;;;;;15.03;6.53;;;5.70;99.90;;;;;;5086475;28;20456;-69
2021/03/24 01:50:28;;;;;;;15.07;7.03;;;5.70;99.90;;;;;;5066067;28;20230;-69
2021/03/24 01:52:55;;;;;;;10.47;6.30;;;5.70;99.90;;;;;;5050825;28;20469;-70
2021/03/24 01:55:21;;;;;;;9.70;5.70;;;5.70;99.90;;;;;;5042318;28;20457;-70
2021/03/24 01:57:47;;;;;;;11.10;6.70;;;5.60;99.90;;;;;;5067370;28;20526;-70
2021/03/24 02:00:36;;;;;;;9.10;5.30;;;5.60;99.90;;;;;;5081530;28;20500;-70
2021/03/24 02:03:04;;;;;;;10.00;5.53;;;5.50;99.90;;;;;;5075933;28;20593;-69
2021/03/24 02:05:29;;;;;;;14.77;5.63;;;5.50;99.90;;;;;;5042086;28;20488;-68
2021/03/24 02:08:01;;;;;;;11.90;5.10;;;5.50;99.90;;;;;;5044068;28;20461;-68
2021/03/24 02:10:43;;;;;;;11.47;6.23;;;5.50;99.90;;;;;;5076942;28;20302;-70
2021/03/24 02:13:14;;;;;;;13.83;6.47;;;5.50;99.90;;;;;;5065858;28;20552;-70
2021/03/24 02:15:43;;;;;;;12.30;6.00;;;5.50;99.90;;;;;;5100789;28;20483;-70
2021/03/24 02:18:11;;;;;;;9.50;5.07;;;5.40;99.90;;;;;;5065399;28;20448;-69
2021/03/24 02:20:46;;;;;;;10.57;5.47;;;5.40;99.90;;;;;;5110960;28;20485;-69
2021/03/24 02:23:36;;;;;;;11.63;6.20;;;5.40;99.90;;;;;;5086090;28;20522;-70
2021/03/24 02:26:36;;;;;;;12.10;6.33;;;5.40;99.90;;;;;;5097562;28;20496;-70
2021/03/24 02:29:04;;;;;;;11.17;4.97;;;5.40;99.90;;;;;;5090108;28;20460;-69
2021/03/24 02:31:32;;;;;;;13.50;5.80;;;5.40;99.90;;;;;;5091452;28;20547;-70
2021/03/24 02:34:01;;;;;;;12.00;5.97;;;5.40;99.90;;;;;;5090329;28;20469;-70
2021/03/24 02:36:28;;;;;;;9.83;5.87;;;5.30;99.90;;;;;;5090021;28;20572;-70
2021/03/24 02:38:57;;;;;;;10.37;5.07;;;5.30;99.90;;;;;;5080684;28;20452;-69
2021/03/24 02:41:24;;;;;;;9.07;5.80;;;5.30;99.90;;;;;;5065505;28;20525;-70
2021/03/24 02:43:51;;;;;;;12.27;5.80;;;5.30;99.90;;;;;;5087463;28;20464;-70
2021/03/24 02:46:18;;;;;;;12.83;5.60;;;5.30;99.90;;;;;;5093175;28;20916;-70
2021/03/24 02:48:45;;;;;;;10.23;5.37;;;5.30;99.90;;;;;;5076643;28;20451;-70
2021/03/24 02:51:23;;;;;;;8.33;5.30;;;5.20;99.90;;;;;;5086825;28;20460;-69
2021/03/24 02:53:51;;;;;;;13.63;5.37;;;5.20;99.90;;;;;;5072826;28;20526;-70
2021/03/24 02:56:17;;;;;;;12.33;5.53;;;5.20;99.90;;;;;;5072993;28;21029;-70
2021/03/24 02:58:43;;;;;;;14.03;7.57;;;5.20;99.90;;;;;;5073095;28;20456;-70
2021/03/24 03:01:35;;;;;;;12.67;5.90;;;5.20;99.90;;;;;;5072648;28;20460;-69
2021/03/24 03:04:28;;;;;;;12.30;6.07;;;5.20;99.90;;;;;;5090054;28;20603;-68
2021/03/24 03:06:59;;;;;;;17.13;6.10;;;5.10;99.90;;;;;;5059638;28;20825;-69
2021/03/24 03:09:36;;;;;;;9.97;5.70;;;5.10;99.90;;;;;;5072412;28;20813;-67
2021/03/24 03:12:10;;;;;;;7.70;4.77;;;5.10;99.90;;;;;;5072431;28;20887;-70
2021/03/24 03:14:53;;;;;;;14.93;6.30;;;5.10;99.90;;;;;;5056840;28;20448;-70
2021/03/24 03:17:34;;;;;;;11.97;6.40;;;5.10;99.90;;;;;;5072390;28;20858;-66
2021/03/24 03:20:19;;;;;;;11.60;6.67;;;5.00;99.90;;;;;;5089763;28;20964;-70
2021/03/24 03:22:49;;;;;;;16.33;5.63;;;5.00;99.90;;;;;;5077450;28;20440;-70
2021/03/24 03:25:28;;;;;;;15.07;6.27;;;5.00;99.90;;;;;;5097716;28;20456;-70
2021/03/24 03:27:56;;;;;;;12.37;5.97;;;5.00;99.90;;;;;;5073056;28;20456;-70
2021/03/24 03:30:35;;;;;;;14.60;6.67;;;5.00;99.90;;;;;;5089025;28;20448;-70
2021/03/24 03:33:05;;;;;;;11.30;6.70;;;4.90;99.90;;;;;;5072815;28;21164;-70
2021/03/24 03:35:33;;;;;;;10.47;5.47;;;4.80;99.90;;;;;;5055844;28;20459;-70
2021/03/24 03:38:01;;;;;;;10.13;6.30;;;4.80;99.90;;;;;;5072705;28;21020;-70
2021/03/24 03:40:32;;;;;;;11.30;6.37;;;4.80;99.90;;;;;;5088166;28;20531;-69
2021/03/24 03:42:58;;;;;;;10.83;6.30;;;4.80;99.90;;;;;;5072020;28;20486;-70
2021/03/24 03:45:24;;;;;;;13.10;6.87;;;4.80;99.90;;;;;;5071979;28;20433;-70
2021/03/24 03:47:51;;;;;;;16.27;6.90;;;4.80;99.90;;;;;;5072272;28;20453;-69
2021/03/24 03:50:20;;;;;;;15.80;6.43;;;4.90;99.90;;;;;;5070567;28;20528;-69
2021/03/24 03:53:11;;;;;;;11.73;5.97;;;4.90;99.90;;;;;;5070728;28;20460;-70
2021/03/24 03:56:03;;;;;;;14.10;6.30;;;4.90;99.90;;;;;;5088040;28;21025;-69
2021/03/24 03:58:51;;;;;;;12.63;6.63;;;4.80;99.90;;;;;;5090280;28;20473;-70
2021/03/24 04:01:24;;;;;;;10.57;5.70;;;4.80;99.90;;;;;;5071707;28;21068;-70
2021/03/24 04:04:24;;;;;;;18.90;7.87;;;4.80;99.90;;;;;;5072331;28;20976;-70
2021/03/24 04:06:58;;;;;;;12.53;6.17;;;4.80;99.90;;;;;;5072176;28;20449;-70
2021/03/24 04:09:24;;;;;;;16.10;7.27;;;4.80;99.90;;;;;;5071940;28;20444;-70
2021/03/24 04:11:52;;;;;;;14.57;7.40;;;4.80;99.90;;;;;;5072214;28;20449;-69
2021/03/24 04:14:28;;;;;;;15.20;7.47;;;4.80;99.90;;;;;;5098538;28;20738;-70
2021/03/24 04:16:54;;;;;;;12.90;7.47;;;4.80;99.90;;;;;;5109330;28;20959;-69
2021/03/24 04:19:24;;;;;;;13.87;7.30;;;4.80;99.90;;;;;;5075216;28;20820;-70
2021/03/24 04:21:56;;;;;;;11.23;6.10;;;4.70;99.90;;;;;;5092272;28;20444;-69
2021/03/24 04:24:25;;;;;;;12.17;6.97;;;4.70;99.90;;;;;;5086463;28;20508;-69
2021/03/24 04:26:55;;;;;;;15.03;8.30;;;4.70;99.90;;;;;;5088998;28;20488;-70
2021/03/24 04:29:27;;;;;;;13.90;7.03;;;4.70;99.90;;;;;;5071755;28;20807;-69
2021/03/24 04:31:56;;;;;;;14.73;7.70;;;4.70;99.90;;;;;;5071871;28;20511;-70
2021/03/24 04:34:22;;;;;;;13.83;6.70;;;4.70;99.90;;;;;;5088511;28;20456;-69
2021/03/24 04:37:14;;;;;;;11.50;5.80;;;4.70;99.90;;;;;;5089049;28;20441;-70
2021/03/24 04:39:46;;;;;;;12.50;7.10;;;4.70;99.90;;;;;;5071707;28;20456;-69
2021/03/24 04:42:20;;;;;;;15.83;6.50;;;4.70;99.90;;;;;;5071636;28;20979;-69
2021/03/24 04:44:50;;;;;;;14.17;6.07;;;4.70;99.90;;;;;;5055778;28;20521;-69
2021/03/24 04:47:32;;;;;;;11.07;6.00;;;4.60;99.90;;;;;;5055500;28;21029;-70
2021/03/24 04:50:07;;;;;;;14.43;7.40;;;4.60;99.90;;;;;;5071784;28;20809;-70
2021/03/24 04:52:35;;;;;;;11.87;6.63;;;4.60;99.90;;;;;;5088735;28;20525;-69
2021/03/24 04:55:12;;;;;;;10.80;6.33;;;4.60;99.90;;;;;;5071859;28;20551;-69
2021/03/24 04:57:38;;;;;;;9.43;5.60;;;4.60;99.90;;;;;;5088408;28;20956;-70
2021/03/24 05:00:40;;;;;;;12.50;7.50;;;4.50;99.90;;;;;;5071197;28;20456;-70
2021/03/24 05:03:09;;;;;;;12.20;7.23;;;4.50;99.90;;;;;;5071587;28;20452;-70
2021/03/24 05:05:48;;;;;;;13.60;7.00;;;4.50;99.90;;;;;;5071902;28;20941;-70
2021/03/24 05:08:42;;;;;;;17.77;8.60;;;4.50;99.90;;;;;;5073094;28;20453;-70
2021/03/24 05:11:27;;;;;;;11.80;6.50;;;4.40;99.90;;;;;;5074828;28;20877;-69
2021/03/24 05:14:15;;;;;;;12.67;6.27;;;4.40;99.90;;;;;;5096403;28;20464;-70
2021/03/24 05:16:44;;;;;;;12.93;6.33;;;4.40;99.90;;;;;;5093345;28;20448;-69
2021/03/24 05:19:23;;;;;;;13.17;6.50;;;4.40;99.90;;;;;;5074562;28;20456;-69
2021/03/24 05:22:15;;;;;;;11.33;7.20;;;4.30;99.90;;;;;;5074917;28;20463;-69
2021/03/24 05:24:41;;;;;;;12.87;6.17;;;4.30;99.90;;;;;;5062202;28;20461;-69
2021/03/24 05:27:26;;;;;;;8.07;4.90;;;4.30;99.90;;;;;;5057828;28;20457;-69
2021/03/24 05:29:56;;;;;;;12.77;6.20;;;4.20;99.90;;;;;;5091608;28;20536;-69
2021/03/24 05:32:44;;;;;;;12.93;6.70;;;4.20;99.90;;;;;;5091158;28;20483;-67
2021/03/24 05:35:40;;;;;;;12.37;6.50;;;4.20;99.90;;;;;;5071030;28;20514;-69
2021/03/24 05:38:13;;;;;;;14.40;6.10;;;4.20;99.90;;;;;;5086187;28;20452;-70
2021/03/24 05:41:14;;;;;;;12.10;7.07;;;4.30;99.90;;;;;;5096946;28;20451;-69
2021/03/24 05:43:53;;;;;;;11.57;6.47;;;4.30;99.90;;;;;;5093905;28;20538;-70
2021/03/24 05:46:51;;;;;;;17.20;6.70;;;4.30;99.90;;;;;;5094648;28;20475;-69
2021/03/24 05:49:22;;;;;;;17.47;7.30;;;4.30;99.90;;;;;;5094312;28;20451;-71
2021/03/24 05:51:57;;;;;;;17.47;9.40;;;4.30;99.90;;;;;;5100397;28;20467;-70
2021/03/24 05:54:53;;;;;;;14.87;7.70;;;4.30;99.90;;;;;;5090998;28;20448;-69
2021/03/24 05:57:49;;;;;;;12.97;6.97;;;4.30;99.90;;;;;;5073564;28;20504;-70
2021/03/24 06:00:47;;;;;;;15.80;7.40;;;4.30;99.90;;;;;;5091940;28;20440;-70
2021/03/24 06:03:36;;;;;;;13.93;7.33;;;4.30;99.90;;;;;;5023105;28;20464;-69
2021/03/24 06:06:46;;;;;;;14.23;7.47;;;4.30;99.90;;;;;;5098798;28;20457;-70
2021/03/24 06:09:28;;;;;;;11.70;6.70;;;4.30;99.90;;;;;;5091474;28;20449;-70
2021/03/24 06:12:18;;;;;;;12.67;6.70;;;4.30;99.90;;;;;;5073945;28;20463;-68
2021/03/24 06:15:05;;;;;;;16.17;7.27;;;4.30;99.90;;;;;;5090678;28;20838;-70
2021/03/24 06:17:46;;;;;;;18.17;7.80;;;4.30;99.90;;;;;;5073335;28;20487;-69
2021/03/24 06:20:41;;;;;;;15.40;7.80;;;4.30;99.90;;;;;;5073199;28;20506;-71
2021/03/24 06:23:15;;;;;;;15.63;8.27;;;4.30;99.90;;;;;;5083991;28;20462;-70
2021/03/24 06:25:41;;;;;;;15.33;6.60;;;4.30;99.90;;;;;;5073797;28;20480;-70
2021/03/24 06:28:30;;;;;;;14.93;7.30;;;4.30;99.90;;;;;;5073516;28;20498;-70
2021/03/24 06:31:16;;;;;;;14.13;7.50;;;4.30;99.90;;;;;;5073447;28;20252;-69
2021/03/24 06:34:19;;;;;;;15.53;8.00;;;4.30;99.90;;;;;;5030916;28;20465;-69
2021/03/24 06:37:06;;;;;;;11.93;7.27;;;4.20;99.90;;;;;;5093693;28;20428;-70
2021/03/24 06:40:00;;;;;;;12.37;6.77;;;4.20;99.90;;;;;;5072576;28;20455;-69
2021/03/24 06:42:44;;;;;;;11.30;6.20;;;4.30;99.90;;;;;;5084935;28;20459;-70
2021/03/24 06:45:35;;;;;;;16.47;6.53;;;4.30;99.90;;;;;;5110373;28;20439;-69
2021/03/24 06:48:16;;;;;;;14.23;8.57;;;4.30;99.90;;;;;;5093586;28;20452;-69
2021/03/24 06:51:10;;;;;;;14.17;7.40;;;4.30;99.90;;;;;;5091417;28;20520;-70
2021/03/24 06:54:24;;;;;;;12.97;7.17;;;4.30;99.90;;;;;;5073125;28;20464;-70
2021/03/24 06:57:03;;;;;;;14.97;7.60;;;4.30;99.90;;;;;;5073092;28;20949;-70
2021/03/24 07:00:10;;;;;;;18.20;8.00;;;4.40;99.90;;;;;;5089859;28;20558;-69
2021/03/24 07:02:50;;;;;;;16.27;8.27;;;4.40;99.90;;;;;;5041188;28;20459;-70
2021/03/24 07:05:25;;;;;;;13.57;8.10;;;4.40;99.90;;;;;;5089472;28;20488;-70
2021/03/24 07:08:22;;;;;;;17.40;8.47;;;4.50;99.90;;;;;;5089881;28;20480;-70
2021/03/24 07:11:07;;;;;;;20.67;10.03;;;4.50;99.90;;;;;;5072786;28;20986;-70
2021/03/24 07:14:11;;;;;;;22.37;9.80;;;4.50;99.90;;;;;;5084519;28;20875;-69
2021/03/24 07:16:55;;;;;;;17.27;8.80;;;4.50;99.90;;;;;;5069519;28;21031;-68
2021/03/24 07:19:37;;;;;;;18.40;8.90;;;4.60;99.90;;;;;;5052264;28;20579;-68
2021/03/24 07:22:32;;;;;;;17.20;9.47;;;4.60;99.90;;;;;;5081195;28;20448;-71
2021/03/24 07:25:22;;;;;;;17.77;8.80;;;4.70;99.90;;;;;;5076249;28;20448;-70
2021/03/24 07:28:08;;;;;;;18.17;9.57;;;4.70;99.90;;;;;;5072671;28;20964;-69
2021/03/24 07:30:55;;;;;;;15.50;8.57;;;4.80;99.90;;;;;;5071603;28;20458;-70
2021/03/24 07:33:21;;;;;;;19.10;9.00;;;4.80;99.90;;;;;;5088995;28;20457;-70
2021/03/24 07:36:38;;;;;;;22.67;10.00;;;4.90;99.90;;;;;;5089500;28;20445;-69
2021/03/24 07:39:41;;;;;;;11.40;6.97;;;4.90;99.90;;;;;;4994461;28;20574;-71
2021/03/24 07:42:29;;;;;;;15.80;7.93;;;5.00;99.90;;;;;;5090402;28;20826;-70
2021/03/24 07:45:15;;;;;;;15.43;7.83;;;5.00;99.90;;;;;;5084133;28;20460;-70
2021/03/24 07:48:01;;;;;;;19.40;8.23;;;5.10;99.90;;;;;;5061115;28;20473;-70
2021/03/24 07:50:50;;;;;;;15.80;8.40;;;5.10;99.90;;;;;;5067783;28;20864;-70
2021/03/24 07:53:40;;;;;;;15.90;7.57;;;5.20;99.90;;;;;;5051742;28;20462;-70
2021/03/24 07:56:22;;;;;;;13.17;7.13;;;5.20;99.90;;;;;;5052181;28;20460;-70
2021/03/24 07:59:13;;;;;;;19.10;8.17;;;5.30;99.90;;;;;;5052204;28;20541;-70
2021/03/24 08:02:04;;;;;;;18.07;8.33;;;5.30;99.90;;;;;;5069790;28;20508;-70
2021/03/24 08:04:48;;;;;;;15.43;8.50;;;5.40;99.90;;;;;;5052033;28;20515;-70
2021/03/24 08:07:58;;;;;;;14.77;7.50;;;5.50;99.90;;;;;;5080767;28;20841;-70
2021/03/24 08:10:35;;;;;;;16.30;8.30;;;5.60;99.90;;;;;;5016887;28;20448;-70
2021/03/24 08:13:19;;;;;;;16.10;7.60;;;5.60;99.90;;;;;;5072187;28;20530;-70
2021/03/24 08:16:10;;;;;;;19.60;8.57;;;5.70;99.90;;;;;;5071954;28;20453;-70
2021/03/24 08:19:26;;;;;;;18.20;8.80;;;5.70;99.90;;;;;;5089001;28;20531;-69
2021/03/24 08:22:26;;;;;;;18.47;8.83;;;5.80;99.90;;;;;;5058872;28;20460;-69
2021/03/24 08:24:55;;;;;;;15.20;7.50;;;5.90;99.90;;;;;;5091645;28;20913;-69
2021/03/24 08:27:28;;;;;;;18.37;7.43;;;6.00;99.90;;;;;;5088531;28;20457;-69
2021/03/24 08:30:08;;;;;;;16.20;8.50;;;6.10;99.90;;;;;;5071988;28;20449;-70
2021/03/24 08:33:11;;;;;;;12.80;8.00;;;6.10;99.90;;;;;;5072052;28;20460;-70
2021/03/24 08:35:58;;;;;;;12.87;6.57;;;6.10;99.90;;;;;;5072023;28;20463;-70
2021/03/24 08:38:49;;;;;;;17.07;7.90;;;6.20;99.90;;;;;;5088366;28;20452;-70
2021/03/24 08:41:34;;;;;;;17.30;8.17;;;6.30;99.90;;;;;;5071533;28;20445;-69
2021/03/24 08:44:21;;;;;;;15.00;7.57;;;6.40;99.90;;;;;;5092891;28;20488;-70
2021/03/24 08:47:25;;;;;;;19.37;9.10;;;6.50;99.90;;;;;;5071703;28;20498;-69
2021/03/24 08:49:57;;;;;;;20.70;9.00;;;6.60;99.90;;;;;;5055534;28;20464;-69
2021/03/24 08:52:52;;;;;;;24.03;9.60;;;6.70;99.90;;;;;;5070512;28;20497;-69
2021/03/24 08:55:31;;;;;;;18.23;9.47;;;6.90;99.90;;;;;;5070290;28;20463;-70
2021/03/24 08:58:24;;;;;;;15.30;7.90;;;7.10;99.90;;;;;;5089781;28;21164;-70
2021/03/24 09:01:01;;;;;;;15.67;8.40;;;7.20;99.90;;;;;;5088160;28;20451;-72
2021/03/24 09:03:45;;;;;;;20.67;9.57;;;7.30;99.90;;;;;;5074766;28;20536;-72
2021/03/24 09:06:43;;;;;;;16.73;8.57;;;7.40;99.90;;;;;;5074946;28;20444;-70
2021/03/24 09:09:28;;;;;;;23.67;9.97;;;7.40;99.90;;;;;;5074577;28;20440;-72
2021/03/24 09:12:20;;;;;;;14.43;8.20;;;7.50;99.90;;;;;;5071731;28;20448;-72
2021/03/24 09:14:59;;;;;;;16.27;7.93;;;7.70;99.90;;;;;;5071472;28;20465;-70
2021/03/24 09:17:47;;;;;;;18.13;9.67;;;7.80;99.90;;;;;;5054393;28;20570;-70
2021/03/24 09:21:01;;;;;;;20.00;9.60;;;7.90;99.90;;;;;;5070723;28;20446;-69
2021/03/24 09:24:03;;;;;;;15.37;8.20;;;8.10;99.90;;;;;;5083004;28;20853;-70
2021/03/24 09:27:07;;;;;;;14.87;8.40;;;8.20;99.90;;;;;;5094069;28;20565;-70
2021/03/24 09:29:54;;;;;;;16.30;7.70;;;8.20;99.90;;;;;;5091880;28;20531;-71
2021/03/24 09:32:32;;;;;;;14.27;8.50;;;8.30;99.90;;;;;;5091140;28;20529;-70
2021/03/24 09:35:09;;;;;;;17.57;9.17;;;8.50;99.90;;;;;;5074581;28;20521;-69
2021/03/24 09:37:37;;;;;;;18.43;10.13;;;8.60;99.90;;;;;;5073979;28;20453;-70
2021/03/24 09:40:30;;;;;;;15.90;9.77;;;8.60;99.90;;;;;;5074183;28;20448;-71
2021/03/24 09:42:58;;;;;;;17.20;9.20;;;8.70;99.90;;;;;;5086884;28;20449;-70
2021/03/24 09:45:30;;;;;;;16.17;9.40;;;8.90;99.90;;;;;;5090996;28;20443;-71
2021/03/24 09:48:17;;;;;;;15.43;8.70;;;9.00;99.90;;;;;;5069920;28;20442;-68
2021/03/24 09:51:03;;;;;;;19.47;9.07;;;9.10;99.90;;;;;;5086859;28;20448;-69
2021/03/24 09:53:30;;;;;;;16.13;9.17;;;9.30;99.90;;;;;;5062926;28;20457;-69
2021/03/24 09:55:56;;;;;;;15.87;8.70;;;9.40;99.90;;;;;;5087471;28;20471;-70
2021/03/24 09:58:24;;;;;;;21.67;10.37;;;9.50;99.90;;;;;;5089351;28;21339;-70
2021/03/24 10:00:57;;;;;;;15.10;8.17;;;9.50;99.90;;;;;;5087704;28;20247;-70
2021/03/24 10:03:41;;;;;;;15.30;9.20;;;9.60;99.90;;;;;;5090981;28;20460;-70
2021/03/24 10:06:19;;;;;;;15.17;8.80;;;9.80;99.90;;;;;;5088511;28;20452;-69
2021/03/24 10:08:50;;;;;;;16.57;9.57;;;9.80;99.90;;;;;;5072394;28;20444;-70
2021/03/24 10:11:29;;;;;;;18.77;10.17;;;9.80;99.90;;;;;;5050642;28;20464;-70
2021/03/24 10:14:04;;;;;;;19.50;10.07;;;10.00;99.90;;;;;;5070481;28;20479;-70
2021/03/24 10:16:36;;;;;;;18.80;10.60;;;10.10;99.90;;;;;;5081296;28;20457;-70
2021/03/24 10:19:09;;;;;;;17.00;9.73;;;10.20;99.90;;;;;;5070873;28;20839;-71
2021/03/24 10:21:42;;;;;;;13.33;9.00;;;10.20;99.90;;;;;;5082482;28;20532;-70
2021/03/24 10:24:13;;;;;;;16.60;9.70;;;10.30;99.90;;;;;;5073443;28;20587;-70
2021/03/24 10:26:45;;;;;;;19.90;10.97;;;10.50;99.90;;;;;;5071532;28;20564;-70
2021/03/24 10:29:15;;;;;;;15.40;9.77;;;10.60;99.90;;;;;;5086707;28;20441;-69
2021/03/24 10:31:55;;;;;;;16.03;9.17;;;10.60;99.90;;;;;;5067615;28;20942;-70
2021/03/24 10:34:28;;;;;;;17.53;8.93;;;10.70;99.90;;;;;;5056323;28;20485;-69
2021/03/24 10:37:14;;;;;;;16.33;10.33;;;10.80;99.90;;;;;;5084257;28;20476;-70
2021/03/24 10:39:56;;;;;;;19.03;9.60;;;11.00;99.90;;;;;;5070986;28;20456;-70
2021/03/24 10:42:35;;;;;;;12.27;8.63;;;11.00;99.90;;;;;;5070096;28;20521;-70
2021/03/24 10:45:27;;;;;;;15.80;10.37;;;11.20;99.90;;;;;;5083090;28;20440;-70
2021/03/24 10:48:13;;;;;;;20.67;10.93;;;11.30;99.90;;;;;;5079476;28;20450;-68
2021/03/24 10:51:00;;;;;;;20.00;11.07;;;11.60;99.90;;;;;;5085020;28;20464;-68
2021/03/24 10:53:29;;;;;;;14.83;9.53;;;11.80;99.90;;;;;;5068664;28;20461;-69
2021/03/24 10:56:30;;;;;;;15.27;9.90;;;12.00;99.90;;;;;;5067970;28;20489;-69
2021/03/24 10:59:12;;;;;;;16.97;9.83;;;12.00;99.90;;;;;;5085918;28;20487;-68
2021/03/24 11:01:56;;;;;;;17.17;10.17;;;12.10;99.90;;;;;;5084143;28;20479;-69
2021/03/24 11:04:21;;;;;;;14.27;9.07;;;12.40;99.90;;;;;;5063737;28;20458;-68
2021/03/24 11:06:56;;;;;;;14.87;9.80;;;12.40;99.90;;;;;;5079170;28;20480;-68
2021/03/24 11:09:25;;;;;;;14.10;10.00;;;12.60;99.90;;;;;;5076072;28;20218;-67
2021/03/24 11:12:04;;;;;;;16.03;10.70;;;12.80;99.90;;;;;;5081143;28;20451;-69
2021/03/24 11:14:37;;;;;;;16.27;9.80;;;12.90;99.90;;;;;;5034968;28;20461;-68
2021/03/24 11:17:23;;;;;;;18.50;11.27;;;13.00;99.90;;;;;;5083199;28;20533;-69
2021/03/24 11:20:06;;;;;;;13.10;8.47;;;13.30;99.90;;;;;;5085050;28;20478;-68
2021/03/24 11:22:50;;;;;;;14.37;10.07;;;13.20;99.90;;;;;;5109498;27;20490;-68
2021/03/24 11:25:33;;;;;;;17.00;9.90;;;13.20;99.90;;;;;;5101108;28;20543;-68
2021/03/24 11:28:23;;;;;;;20.87;10.50;;;13.40;99.90;;;;;;5072329;28;20524;-68
2021/03/24 11:31:13;;;;;;;18.07;8.70;;;13.60;99.90;;;;;;5088565;28;20449;-69
2021/03/24 11:33:49;;;;;;;15.07;9.70;;;13.60;99.90;;;;;;5072161;28;20546;-68
2021/03/24 11:36:25;;;;;;;15.13;8.77;;;13.70;99.90;;;;;;5071433;28;21127;-71
2021/03/24 11:39:17;;;;;;;15.00;9.67;;;13.80;99.90;;;;;;5072509;28;20451;-69
2021/03/24 11:41:44;;;;;;;11.87;7.87;;;14.10;99.90;;;;;;5068651;28;20952;-69
2021/03/24 11:44:21;;;;;;;12.50;8.87;;;14.20;99.90;;;;;;5074185;28;20466;-68
2021/03/24 11:46:46;;;;;;;15.97;7.83;;;14.20;99.90;;;;;;5083477;28;21359;-68
2021/03/24 11:49:15;;;;;;;15.10;9.07;;;14.30;99.90;;;;;;5108487;27;20459;-71
2021/03/24 11:52:14;;;;;;;10.93;7.50;;;14.40;99.90;;;;;;5081847;28;20699;-69
2021/03/24 11:54:49;;;;;;;12.37;9.30;;;14.50;99.90;;;;;;5090415;28;20540;-69
2021/03/24 11:57:52;;;;;;;12.67;8.57;;;14.70;99.90;;;;;;5088912;28;20538;-69
2021/03/24 12:00:30;;;;;;;11.50;6.83;;;14.90;99.90;;;;;;5071736;28;20495;-69
2021/03/24 12:03:33;;;;;;;12.10;8.77;;;14.80;99.90;;;;;;5072176;28;20524;-69
2021/03/24 12:06:13;;;;;;;14.13;7.80;;;14.70;99.90;;;;;;5072042;28;20444;-69
2021/03/24 12:08:56;;;;;;;10.97;8.23;;;14.80;99.90;;;;;;5088749;28;20449;-69
2021/03/24 12:11:29;;;;;;;14.33;9.80;;;14.70;99.90;;;;;;5094443;28;20439;-69
2021/03/24 12:14:16;;;;;;;15.30;10.40;;;14.60;99.90;;;;;;5085530;28;20536;-69
2021/03/24 12:16:56;;;;;;;14.07;10.27;;;14.70;99.90;;;;;;5107294;28;20483;-70
2021/03/24 12:19:33;;;;;;;10.27;8.27;;;14.80;99.90;;;;;;5092077;28;20459;-69
2021/03/24 12:22:05;;;;;;;16.03;9.70;;;14.90;99.90;;;;;;5107290;28;20850;-69
2021/03/24 12:24:39;;;;;;;10.80;7.93;;;15.00;99.90;;;;;;5078352;28;20467;-70
2021/03/24 12:27:32;;;;;;;14.67;9.53;;;15.10;99.90;;;;;;5073592;28;21082;-69
2021/03/24 12:30:00;;;;;;;14.00;9.27;;;15.30;99.90;;;;;;5093847;28;21170;-69
2021/03/24 12:32:29;;;;;;;13.23;9.07;;;15.40;99.90;;;;;;5083168;28;20478;-69
2021/03/24 12:34:55;;;;;;;19.70;9.93;;;15.50;99.90;;;;;;5058573;28;20510;-69
2021/03/24 12:37:34;;;;;;;11.23;8.90;;;15.50;99.90;;;;;;5090883;28;20449;-70
2021/03/24 12:40:28;;;;;;;15.83;9.47;;;15.50;99.90;;;;;;5071341;28;20503;-69
2021/03/24 12:43:08;;;;;;;15.53;10.43;;;15.20;99.90;;;;;;5056072;28;20495;-69
2021/03/24 12:45:40;;;;;;;14.67;8.27;;;15.40;99.90;;;;;;5092443;28;20452;-69
2021/03/24 12:48:35;;;;;;;10.13;7.80;;;15.40;99.90;;;;;;5074445;28;20531;-69
2021/03/24 12:51:19;;;;;;;11.10;7.23;;;15.50;99.90;;;;;;5073355;28;20440;-69
2021/03/24 12:53:53;;;;;;;16.60;7.87;;;15.60;99.90;;;;;;5090198;28;21052;-69
2021/03/24 12:56:53;;;;;;;15.53;9.50;;;15.70;99.90;;;;;;5070628;28;20471;-69
2021/03/24 12:59:50;;;;;;;10.20;7.53;;;16.00;99.90;;;;;;5091783;28;20468;-70
2021/03/24 13:02:28;;;;;;;9.97;7.00;;;16.10;99.90;;;;;;5071425;28;20540;-69
2021/03/24 13:05:29;;;;;;;11.00;6.90;;;16.10;99.90;;;;;;5088875;28;20453;-69
2021/03/24 13:08:10;;;;;;;13.97;8.70;;;16.10;99.90;;;;;;5071181;28;20449;-70
2021/03/24 13:10:51;;;;;;;10.37;7.83;;;16.30;99.90;;;;;;5092220;28;20441;-69
2021/03/24 13:13:29;;;;;;;13.20;8.23;;;16.30;99.90;;;;;;5077156;28;20507;-69
2021/03/24 13:16:21;;;;;;;12.93;8.63;;;16.30;99.90;;;;;;5097016;28;20444;-69
2021/03/24 13:18:58;;;;;;;13.67;9.83;;;16.40;99.90;;;;;;5091014;28;20451;-70
2021/03/24 13:21:54;;;;;;;12.30;8.60;;;16.60;99.90;;;;;;5074769;28;20444;-69
2021/03/24 13:24:48;;;;;;;13.23;8.10;;;16.90;99.90;;;;;;5077638;28;20442;-69
2021/03/24 13:27:31;;;;;;;19.00;9.10;;;16.90;99.90;;;;;;5074719;28;20475;-70
2021/03/24 13:30:05;;;;;;;12.27;7.77;;;16.90;99.90;;;;;;5096903;28;20444;-69
2021/03/24 13:33:11;;;;;;;10.13;7.73;;;16.90;99.90;;;;;;5080553;28;20481;-69
2021/03/24 13:36:00;;;;;;;13.43;8.87;;;16.80;99.90;;;;;;5057569;28;20934;-69
2021/03/24 13:38:30;;;;;;;11.57;7.93;;;16.90;99.90;;;;;;5087240;28;20519;-69
2021/03/24 13:41:00;;;;;;;10.53;7.87;;;17.20;99.90;;;;;;5077806;28;20445;-69
2021/03/24 13:43:40;;;;;;;14.63;8.07;;;17.30;99.90;;;;;;5092628;28;20459;-69
2021/03/24 13:46:16;;;;;;;11.17;7.40;;;17.20;99.90;;;;;;5073452;28;20574;-69